sensor_id;sensor_type;location;lat;lon;timestamp;temperature;humidity
61591;DHT22;71994;52.410;-1.966;2023-12-20T00:00:15;15.80;54.50
61591;DHT22;71994;52.410;-1.966;2023-12-20T00:03:21;15.80;54.50
61591;DHT22;71994;52.410;-1.966;2023-12-20T00:06:28;15.80;54.50
61591;DHT22;71994;52.410;-1.966;2023-12-20T00:09:36;15.80;54.50
61591;DHT22;71994;52.410;-1.966;2023-12-20T00:12:45;15.80;54.50
61591;DHT22;71994;52.410;-1.966;2023-12-20T00:15:52;15.80;54.50
61591;DHT22;71994;52.410;-1.966;2023-12-20T00:19:00;15.80;54.50
61591;DHT22;71994;52.410;-1.966;2023-12-20T00:22:04;15.70;54.50
61591;DHT22;71994;52.410;-1.966;2023-12-20T00:25:11;15.80;54.50
61591;DHT22;71994;52.410;-1.966;2023-12-20T00:28:18;15.70;54.50
61591;DHT22;71994;52.410;-1.966;2023-12-20T00:31:29;15.80;54.50
61591;DHT22;71994;52.410;-1.966;2023-12-20T00:34:36;15.70;54.50
61591;DHT22;71994;52.410;-1.966;2023-12-20T00:37:43;15.70;54.50
61591;DHT22;71994;52.410;-1.966;2023-12-20T00:40:48;15.70;54.50
61591;DHT22;71994;52.410;-1.966;2023-12-20T00:44:02;15.70;54.50
61591;DHT22;71994;52.410;-1.966;2023-12-20T00:47:11;15.70;54.50
61591;DHT22;71994;52.410;-1.966;2023-12-20T00:50:18;15.60;54.50
61591;DHT22;71994;52.410;-1.966;2023-12-20T00:53:29;15.60;54.50
61591;DHT22;71994;52.410;-1.966;2023-12-20T00:56:39;15.60;54.50
61591;DHT22;71994;52.410;-1.966;2023-12-20T00:59:51;15.60;54.40
61591;DHT22;71994;52.410;-1.966;2023-12-20T01:02:59;15.60;54.50
61591;DHT22;71994;52.410;-1.966;2023-12-20T01:06:06;15.60;54.50
61591;DHT22;71994;52.410;-1.966;2023-12-20T01:09:13;15.60;54.50
61591;DHT22;71994;52.410;-1.966;2023-12-20T01:12:19;15.60;54.50
61591;DHT22;71994;52.410;-1.966;2023-12-20T01:15:29;15.60;54.50
61591;DHT22;71994;52.410;-1.966;2023-12-20T01:18:33;15.60;54.50
61591;DHT22;71994;52.410;-1.966;2023-12-20T01:21:40;15.60;54.50
61591;DHT22;71994;52.410;-1.966;2023-12-20T01:24:47;15.60;54.50
61591;DHT22;71994;52.410;-1.966;2023-12-20T01:27:55;15.60;54.20
61591;DHT22;71994;52.410;-1.966;2023-12-20T01:31:03;15.60;53.70
61591;DHT22;71994;52.410;-1.966;2023-12-20T01:34:10;15.70;53.70
61591;DHT22;71994;52.410;-1.966;2023-12-20T01:37:17;15.80;53.40
61591;DHT22;71994;52.410;-1.966;2023-12-20T01:40:27;15.80;53.20
61591;DHT22;71994;52.410;-1.966;2023-12-20T01:43:33;15.80;53.00
61591;DHT22;71994;52.410;-1.966;2023-12-20T01:46:40;15.90;53.20
61591;DHT22;71994;52.410;-1.966;2023-12-20T01:49:47;16.00;53.00
61591;DHT22;71994;52.410;-1.966;2023-12-20T01:52:56;16.00;53.10
61591;DHT22;71994;52.410;-1.966;2023-12-20T01:56:07;16.00;53.00
61591;DHT22;71994;52.410;-1.966;2023-12-20T01:59:16;16.10;52.60
61591;DHT22;71994;52.410;-1.966;2023-12-20T02:02:28;16.20;52.70
61591;DHT22;71994;52.410;-1.966;2023-12-20T02:05:34;16.40;52.40
61591;DHT22;71994;52.410;-1.966;2023-12-20T02:08:41;16.40;52.10
61591;DHT22;71994;52.410;-1.966;2023-12-20T02:11:49;16.50;51.90
61591;DHT22;71994;52.410;-1.966;2023-12-20T02:14:56;16.40;51.70
61591;DHT22;71994;52.410;-1.966;2023-12-20T02:18:13;16.50;51.80
61591;DHT22;71994;52.410;-1.966;2023-12-20T02:21:31;16.40;51.80
61591;DHT22;71994;52.410;-1.966;2023-12-20T02:24:35;16.40;51.70
61591;DHT22;71994;52.410;-1.966;2023-12-20T02:27:41;16.30;51.80
61591;DHT22;71994;52.410;-1.966;2023-12-20T02:30:48;16.30;51.80
61591;DHT22;71994;52.410;-1.966;2023-12-20T02:33:54;16.30;51.80
61591;DHT22;71994;52.410;-1.966;2023-12-20T02:37:03;16.30;51.80
61591;DHT22;71994;52.410;-1.966;2023-12-20T02:40:09;16.30;51.80
61591;DHT22;71994;52.410;-1.966;2023-12-20T02:43:19;16.30;52.00
61591;DHT22;71994;52.410;-1.966;2023-12-20T02:46:26;16.20;52.00
61591;DHT22;71994;52.410;-1.966;2023-12-20T02:49:33;16.10;52.00
61591;DHT22;71994;52.410;-1.966;2023-12-20T02:52:44;16.10;52.20
61591;DHT22;71994;52.410;-1.966;2023-12-20T02:55:50;16.10;52.30
61591;DHT22;71994;52.410;-1.966;2023-12-20T02:58:56;16.10;52.30
61591;DHT22;71994;52.410;-1.966;2023-12-20T03:02:03;16.10;52.00
61591;DHT22;71994;52.410;-1.966;2023-12-20T03:05:08;16.10;52.20
61591;DHT22;71994;52.410;-1.966;2023-12-20T03:08:18;16.10;52.10
61591;DHT22;71994;52.410;-1.966;2023-12-20T03:11:26;16.00;52.40
61591;DHT22;71994;52.410;-1.966;2023-12-20T03:14:33;16.00;52.40
61591;DHT22;71994;52.410;-1.966;2023-12-20T03:17:38;16.00;52.20
61591;DHT22;71994;52.410;-1.966;2023-12-20T03:20:50;16.00;52.50
61591;DHT22;71994;52.410;-1.966;2023-12-20T03:23:58;15.90;52.40
61591;DHT22;71994;52.410;-1.966;2023-12-20T03:27:05;15.90;52.60
61591;DHT22;71994;52.410;-1.966;2023-12-20T03:30:18;15.80;52.60
61591;DHT22;71994;52.410;-1.966;2023-12-20T03:33:25;15.80;52.60
61591;DHT22;71994;52.410;-1.966;2023-12-20T03:36:32;15.80;52.80
61591;DHT22;71994;52.410;-1.966;2023-12-20T03:39:39;15.70;52.90
61591;DHT22;71994;52.410;-1.966;2023-12-20T03:42:46;15.70;52.90
61591;DHT22;71994;52.410;-1.966;2023-12-20T03:45:52;15.70;53.00
61591;DHT22;71994;52.410;-1.966;2023-12-20T03:48:59;15.70;53.00
61591;DHT22;71994;52.410;-1.966;2023-12-20T03:52:06;15.70;53.10
61591;DHT22;71994;52.410;-1.966;2023-12-20T03:55:16;15.70;53.10
61591;DHT22;71994;52.410;-1.966;2023-12-20T03:58:21;15.70;53.10
61591;DHT22;71994;52.410;-1.966;2023-12-20T04:01:29;15.70;53.00
61591;DHT22;71994;52.410;-1.966;2023-12-20T04:04:38;15.70;53.00
61591;DHT22;71994;52.410;-1.966;2023-12-20T04:07:48;15.80;53.00
61591;DHT22;71994;52.410;-1.966;2023-12-20T04:10:58;15.80;52.90
61591;DHT22;71994;52.410;-1.966;2023-12-20T04:14:05;15.90;52.50
61591;DHT22;71994;52.410;-1.966;2023-12-20T04:17:10;16.00;52.50
61591;DHT22;71994;52.410;-1.966;2023-12-20T04:20:19;16.10;52.30
61591;DHT22;71994;52.410;-1.966;2023-12-20T04:23:23;16.10;52.10
61591;DHT22;71994;52.410;-1.966;2023-12-20T04:26:34;16.20;52.10
61591;DHT22;71994;52.410;-1.966;2023-12-20T04:29:38;16.30;52.00
61591;DHT22;71994;52.410;-1.966;2023-12-20T04:32:45;16.30;51.80
61591;DHT22;71994;52.410;-1.966;2023-12-20T04:35:50;16.30;51.60
61591;DHT22;71994;52.410;-1.966;2023-12-20T04:38:57;16.40;51.50
61591;DHT22;71994;52.410;-1.966;2023-12-20T04:42:05;16.40;51.50
61591;DHT22;71994;52.410;-1.966;2023-12-20T04:45:14;16.30;51.40
61591;DHT22;71994;52.410;-1.966;2023-12-20T04:48:19;16.40;51.40
61591;DHT22;71994;52.410;-1.966;2023-12-20T04:51:26;16.30;51.40
61591;DHT22;71994;52.410;-1.966;2023-12-20T04:54:31;16.30;51.40
61591;DHT22;71994;52.410;-1.966;2023-12-20T04:57:42;16.20;51.60
61591;DHT22;71994;52.410;-1.966;2023-12-20T05:00:48;16.20;51.50
61591;DHT22;71994;52.410;-1.966;2023-12-20T05:03:56;16.20;51.50
61591;DHT22;71994;52.410;-1.966;2023-12-20T05:07:00;16.10;51.60
61591;DHT22;71994;52.410;-1.966;2023-12-20T05:10:11;16.10;51.70
61591;DHT22;71994;52.410;-1.966;2023-12-20T05:13:19;16.10;51.70
61591;DHT22;71994;52.410;-1.966;2023-12-20T05:16:27;16.10;51.80
61591;DHT22;71994;52.410;-1.966;2023-12-20T05:19:35;16.10;51.80
61591;DHT22;71994;52.410;-1.966;2023-12-20T05:22:43;16.10;52.00
61591;DHT22;71994;52.410;-1.966;2023-12-20T05:25:48;16.00;51.90
61591;DHT22;71994;52.410;-1.966;2023-12-20T05:28:58;16.00;51.90
61591;DHT22;71994;52.410;-1.966;2023-12-20T05:32:03;16.00;52.10
61591;DHT22;71994;52.410;-1.966;2023-12-20T05:35:10;16.00;52.10
61591;DHT22;71994;52.410;-1.966;2023-12-20T05:38:17;15.90;52.20
61591;DHT22;71994;52.410;-1.966;2023-12-20T05:41:22;16.00;52.10
61591;DHT22;71994;52.410;-1.966;2023-12-20T05:44:32;15.90;52.20
61591;DHT22;71994;52.410;-1.966;2023-12-20T05:47:40;15.90;52.20
61591;DHT22;71994;52.410;-1.966;2023-12-20T05:50:46;15.80;52.20
61591;DHT22;71994;52.410;-1.966;2023-12-20T05:53:53;15.80;52.20
61591;DHT22;71994;52.410;-1.966;2023-12-20T05:57:00;15.80;52.20
61591;DHT22;71994;52.410;-1.966;2023-12-20T06:00:13;15.80;52.30
61591;DHT22;71994;52.410;-1.966;2023-12-20T06:03:19;15.70;52.40
61591;DHT22;71994;52.410;-1.966;2023-12-20T06:06:26;15.70;52.40
61591;DHT22;71994;52.410;-1.966;2023-12-20T06:09:31;15.60;52.50
61591;DHT22;71994;52.410;-1.966;2023-12-20T06:12:39;15.70;52.60
61591;DHT22;71994;52.410;-1.966;2023-12-20T06:15:46;15.70;52.60
61591;DHT22;71994;52.410;-1.966;2023-12-20T06:18:53;15.80;52.40
61591;DHT22;71994;52.410;-1.966;2023-12-20T06:22:00;15.90;52.20
61591;DHT22;71994;52.410;-1.966;2023-12-20T06:25:06;15.90;52.10
61591;DHT22;71994;52.410;-1.966;2023-12-20T06:28:15;15.90;52.20
61591;DHT22;71994;52.410;-1.966;2023-12-20T06:31:27;16.00;52.10
61591;DHT22;71994;52.410;-1.966;2023-12-20T06:34:47;16.10;51.90
61591;DHT22;71994;52.410;-1.966;2023-12-20T06:37:55;16.20;51.70
61591;DHT22;71994;52.410;-1.966;2023-12-20T06:41:02;16.30;51.40
61591;DHT22;71994;52.410;-1.966;2023-12-20T06:44:07;16.40;51.20
61591;DHT22;71994;52.410;-1.966;2023-12-20T06:47:19;16.50;51.10
61591;DHT22;71994;52.410;-1.966;2023-12-20T06:50:23;16.60;51.00
61591;DHT22;71994;52.410;-1.966;2023-12-20T06:53:30;16.60;50.90
61591;DHT22;71994;52.410;-1.966;2023-12-20T06:56:35;16.60;50.90
61591;DHT22;71994;52.410;-1.966;2023-12-20T06:59:41;16.60;50.90
61591;DHT22;71994;52.410;-1.966;2023-12-20T07:02:50;16.60;50.90
61591;DHT22;71994;52.410;-1.966;2023-12-20T07:05:56;16.50;50.90
61591;DHT22;71994;52.410;-1.966;2023-12-20T07:09:01;16.50;50.90
61591;DHT22;71994;52.410;-1.966;2023-12-20T07:12:07;16.50;51.00
61591;DHT22;71994;52.410;-1.966;2023-12-20T07:15:14;16.50;51.10
61591;DHT22;71994;52.410;-1.966;2023-12-20T07:18:24;16.60;50.90
61591;DHT22;71994;52.410;-1.966;2023-12-20T07:21:28;16.70;51.00
61591;DHT22;71994;52.410;-1.966;2023-12-20T07:24:35;16.90;50.70
61591;DHT22;71994;52.410;-1.966;2023-12-20T07:27:42;17.10;50.30
61591;DHT22;71994;52.410;-1.966;2023-12-20T07:30:46;17.30;49.90
61591;DHT22;71994;52.410;-1.966;2023-12-20T07:33:56;17.50;49.70
61591;DHT22;71994;52.410;-1.966;2023-12-20T07:37:00;17.60;49.40
61591;DHT22;71994;52.410;-1.966;2023-12-20T07:40:10;17.70;49.10
61591;DHT22;71994;52.410;-1.966;2023-12-20T07:43:15;17.80;49.00
61591;DHT22;71994;52.410;-1.966;2023-12-20T07:46:22;17.90;48.90
61591;DHT22;71994;52.410;-1.966;2023-12-20T07:49:32;18.00;48.80
61591;DHT22;71994;52.410;-1.966;2023-12-20T07:52:38;18.10;48.80
61591;DHT22;71994;52.410;-1.966;2023-12-20T07:55:45;18.20;48.60
61591;DHT22;71994;52.410;-1.966;2023-12-20T07:58:52;18.20;48.50
61591;DHT22;71994;52.410;-1.966;2023-12-20T08:02:00;18.30;48.50
61591;DHT22;71994;52.410;-1.966;2023-12-20T08:05:11;18.30;48.40
61591;DHT22;71994;52.410;-1.966;2023-12-20T08:08:17;18.40;48.40
61591;DHT22;71994;52.410;-1.966;2023-12-20T08:11:22;18.40;48.20
61591;DHT22;71994;52.410;-1.966;2023-12-20T08:14:31;18.30;48.30
61591;DHT22;71994;52.410;-1.966;2023-12-20T08:17:39;18.30;48.30
61591;DHT22;71994;52.410;-1.966;2023-12-20T08:20:47;18.30;48.30
61591;DHT22;71994;52.410;-1.966;2023-12-20T08:23:56;18.30;48.20
61591;DHT22;71994;52.410;-1.966;2023-12-20T08:27:01;18.20;48.40
61591;DHT22;71994;52.410;-1.966;2023-12-20T08:30:09;18.10;48.40
61591;DHT22;71994;52.410;-1.966;2023-12-20T08:33:14;18.10;48.60
61591;DHT22;71994;52.410;-1.966;2023-12-20T08:36:24;18.10;48.80
61591;DHT22;71994;52.410;-1.966;2023-12-20T08:39:34;18.00;48.80
61591;DHT22;71994;52.410;-1.966;2023-12-20T08:42:44;17.90;49.00
61591;DHT22;71994;52.410;-1.966;2023-12-20T08:45:58;17.80;49.10
61591;DHT22;71994;52.410;-1.966;2023-12-20T08:49:06;17.70;49.30
61591;DHT22;71994;52.410;-1.966;2023-12-20T08:52:16;17.70;49.30
61591;DHT22;71994;52.410;-1.966;2023-12-20T08:55:24;17.60;49.50
61591;DHT22;71994;52.410;-1.966;2023-12-20T08:58:30;17.60;49.60
61591;DHT22;71994;52.410;-1.966;2023-12-20T09:01:37;17.40;49.70
61591;DHT22;71994;52.410;-1.966;2023-12-20T09:04:44;17.40;49.80
61591;DHT22;71994;52.410;-1.966;2023-12-20T09:07:57;17.30;50.00
61591;DHT22;71994;52.410;-1.966;2023-12-20T09:11:05;17.30;50.10
61591;DHT22;71994;52.410;-1.966;2023-12-20T09:14:09;17.20;50.20
61591;DHT22;71994;52.410;-1.966;2023-12-20T09:17:19;17.10;50.50
61591;DHT22;71994;52.410;-1.966;2023-12-20T09:20:24;17.10;50.50
61591;DHT22;71994;52.410;-1.966;2023-12-20T09:23:33;17.00;50.80
61591;DHT22;71994;52.410;-1.966;2023-12-20T09:26:39;16.90;51.10
61591;DHT22;71994;52.410;-1.966;2023-12-20T09:29:47;16.90;51.30
61591;DHT22;71994;52.410;-1.966;2023-12-20T09:32:53;16.80;51.40
61591;DHT22;71994;52.410;-1.966;2023-12-20T09:36:06;16.80;51.40
61591;DHT22;71994;52.410;-1.966;2023-12-20T09:39:16;16.80;51.60
61591;DHT22;71994;52.410;-1.966;2023-12-20T09:42:28;16.70;51.60
61591;DHT22;71994;52.410;-1.966;2023-12-20T09:45:35;16.80;51.70
61591;DHT22;71994;52.410;-1.966;2023-12-20T09:48:43;16.70;51.90
61591;DHT22;71994;52.410;-1.966;2023-12-20T09:51:51;16.70;52.10
61591;DHT22;71994;52.410;-1.966;2023-12-20T09:54:58;16.70;52.10
61591;DHT22;71994;52.410;-1.966;2023-12-20T09:58:07;16.90;52.10
61591;DHT22;71994;52.410;-1.966;2023-12-20T10:01:14;17.00;52.00
61591;DHT22;71994;52.410;-1.966;2023-12-20T10:04:20;17.10;51.70
61591;DHT22;71994;52.410;-1.966;2023-12-20T10:07:28;17.40;51.40
61591;DHT22;71994;52.410;-1.966;2023-12-20T10:10:37;17.60;51.00
61591;DHT22;71994;52.410;-1.966;2023-12-20T10:13:44;17.80;50.60
61591;DHT22;71994;52.410;-1.966;2023-12-20T10:16:50;18.00;50.20
61591;DHT22;71994;52.410;-1.966;2023-12-20T10:19:55;18.10;50.10
61591;DHT22;71994;52.410;-1.966;2023-12-20T10:23:01;18.20;50.00
61591;DHT22;71994;52.410;-1.966;2023-12-20T10:26:11;18.20;49.90
61591;DHT22;71994;52.410;-1.966;2023-12-20T10:29:24;18.20;49.90
61591;DHT22;71994;52.410;-1.966;2023-12-20T10:32:31;18.20;49.80
61591;DHT22;71994;52.410;-1.966;2023-12-20T10:35:38;18.20;49.70
61591;DHT22;71994;52.410;-1.966;2023-12-20T10:38:46;18.10;49.60
61591;DHT22;71994;52.410;-1.966;2023-12-20T10:41:57;18.10;50.00
61591;DHT22;71994;52.410;-1.966;2023-12-20T10:45:07;18.10;50.10
61591;DHT22;71994;52.410;-1.966;2023-12-20T10:48:14;18.00;50.20
61591;DHT22;71994;52.410;-1.966;2023-12-20T10:51:22;18.00;50.10
61591;DHT22;71994;52.410;-1.966;2023-12-20T10:54:29;17.90;50.40
61591;DHT22;71994;52.410;-1.966;2023-12-20T10:57:38;17.80;50.60
61591;DHT22;71994;52.410;-1.966;2023-12-20T11:00:45;17.70;50.70
61591;DHT22;71994;52.410;-1.966;2023-12-20T11:03:53;17.70;50.80
61591;DHT22;71994;52.410;-1.966;2023-12-20T11:07:08;17.60;50.70
61591;DHT22;71994;52.410;-1.966;2023-12-20T11:10:23;17.60;51.00
61591;DHT22;71994;52.410;-1.966;2023-12-20T11:13:37;17.60;51.10
61591;DHT22;71994;52.410;-1.966;2023-12-20T11:16:46;17.50;51.20
61591;DHT22;71994;52.410;-1.966;2023-12-20T11:20:06;17.40;51.30
61591;DHT22;71994;52.410;-1.966;2023-12-20T11:23:13;17.40;51.40
61591;DHT22;71994;52.410;-1.966;2023-12-20T11:26:26;17.30;51.50
61591;DHT22;71994;52.410;-1.966;2023-12-20T11:29:36;17.30;51.60
61591;DHT22;71994;52.410;-1.966;2023-12-20T11:32:42;17.20;51.60
61591;DHT22;71994;52.410;-1.966;2023-12-20T11:35:49;17.20;51.80
61591;DHT22;71994;52.410;-1.966;2023-12-20T11:38:56;17.10;51.90
61591;DHT22;71994;52.410;-1.966;2023-12-20T11:42:04;17.10;51.90
61591;DHT22;71994;52.410;-1.966;2023-12-20T11:45:16;17.10;51.90
61591;DHT22;71994;52.410;-1.966;2023-12-20T11:48:25;17.10;52.00
61591;DHT22;71994;52.410;-1.966;2023-12-20T11:51:31;17.10;52.00
61591;DHT22;71994;52.410;-1.966;2023-12-20T11:54:37;17.00;52.10
61591;DHT22;71994;52.410;-1.966;2023-12-20T11:57:46;16.90;52.30
61591;DHT22;71994;52.410;-1.966;2023-12-20T12:00:53;16.90;52.40
61591;DHT22;71994;52.410;-1.966;2023-12-20T12:04:04;17.00;52.40
61591;DHT22;71994;52.410;-1.966;2023-12-20T12:07:10;16.90;52.60
61591;DHT22;71994;52.410;-1.966;2023-12-20T12:10:17;16.90;52.50
61591;DHT22;71994;52.410;-1.966;2023-12-20T12:13:23;16.90;52.60
61591;DHT22;71994;52.410;-1.966;2023-12-20T12:16:33;16.80;52.70
61591;DHT22;71994;52.410;-1.966;2023-12-20T12:19:37;16.80;53.00
61591;DHT22;71994;52.410;-1.966;2023-12-20T12:22:43;16.80;52.90
61591;DHT22;71994;52.410;-1.966;2023-12-20T12:25:53;16.80;53.10
61591;DHT22;71994;52.410;-1.966;2023-12-20T12:29:00;16.80;53.20
61591;DHT22;71994;52.410;-1.966;2023-12-20T12:32:09;16.70;53.40
61591;DHT22;71994;52.410;-1.966;2023-12-20T12:35:16;16.80;53.60
61591;DHT22;71994;52.410;-1.966;2023-12-20T12:38:22;16.70;53.80
61591;DHT22;71994;52.410;-1.966;2023-12-20T12:41:29;16.80;53.90
61591;DHT22;71994;52.410;-1.966;2023-12-20T12:44:36;16.80;54.10
61591;DHT22;71994;52.410;-1.966;2023-12-20T12:47:45;16.80;54.00
61591;DHT22;71994;52.410;-1.966;2023-12-20T12:50:51;16.90;54.10
61591;DHT22;71994;52.410;-1.966;2023-12-20T12:54:02;16.90;54.10
61591;DHT22;71994;52.410;-1.966;2023-12-20T12:57:24;16.90;53.90
61591;DHT22;71994;52.410;-1.966;2023-12-20T13:00:47;17.00;53.80
61591;DHT22;71994;52.410;-1.966;2023-12-20T13:04:13;17.00;53.90
61591;DHT22;71994;52.410;-1.966;2023-12-20T13:07:19;17.10;53.90
61591;DHT22;71994;52.410;-1.966;2023-12-20T13:10:25;17.10;53.90
61591;DHT22;71994;52.410;-1.966;2023-12-20T13:13:32;17.20;53.70
61591;DHT22;71994;52.410;-1.966;2023-12-20T13:16:38;17.30;53.80
61591;DHT22;71994;52.410;-1.966;2023-12-20T13:19:47;17.30;53.60
61591;DHT22;71994;52.410;-1.966;2023-12-20T13:22:53;17.30;53.60
61591;DHT22;71994;52.410;-1.966;2023-12-20T13:26:00;17.40;53.70
61591;DHT22;71994;52.410;-1.966;2023-12-20T13:29:06;17.40;53.70
61591;DHT22;71994;52.410;-1.966;2023-12-20T13:32:12;17.40;53.80
61591;DHT22;71994;52.410;-1.966;2023-12-20T13:35:21;17.40;53.80
61591;DHT22;71994;52.410;-1.966;2023-12-20T13:38:28;17.40;53.70
61591;DHT22;71994;52.410;-1.966;2023-12-20T13:41:37;17.40;53.60
61591;DHT22;71994;52.410;-1.966;2023-12-20T13:44:43;17.30;53.40
61591;DHT22;71994;52.410;-1.966;2023-12-20T13:47:49;17.30;53.50
61591;DHT22;71994;52.410;-1.966;2023-12-20T13:50:58;17.20;53.60
61591;DHT22;71994;52.410;-1.966;2023-12-20T13:54:05;17.20;53.80
61591;DHT22;71994;52.410;-1.966;2023-12-20T13:57:14;17.10;53.80
61591;DHT22;71994;52.410;-1.966;2023-12-20T14:00:20;17.10;53.90
61591;DHT22;71994;52.410;-1.966;2023-12-20T14:03:26;17.10;53.80
61591;DHT22;71994;52.410;-1.966;2023-12-20T14:06:37;17.10;53.80
61591;DHT22;71994;52.410;-1.966;2023-12-20T14:09:43;17.10;53.90
61591;DHT22;71994;52.410;-1.966;2023-12-20T14:12:50;17.00;53.90
61591;DHT22;71994;52.410;-1.966;2023-12-20T14:15:56;17.00;54.20
61591;DHT22;71994;52.410;-1.966;2023-12-20T14:19:04;17.00;54.40
61591;DHT22;71994;52.410;-1.966;2023-12-20T14:22:15;17.00;54.70
61591;DHT22;71994;52.410;-1.966;2023-12-20T14:25:21;16.90;54.50
61591;DHT22;71994;52.410;-1.966;2023-12-20T14:28:28;16.90;54.90
61591;DHT22;71994;52.410;-1.966;2023-12-20T14:31:35;16.90;55.00
61591;DHT22;71994;52.410;-1.966;2023-12-20T14:34:41;16.80;55.30
61591;DHT22;71994;52.410;-1.966;2023-12-20T14:37:51;16.90;55.10
61591;DHT22;71994;52.410;-1.966;2023-12-20T14:40:57;16.80;55.20
61591;DHT22;71994;52.410;-1.966;2023-12-20T14:44:04;16.80;55.10
61591;DHT22;71994;52.410;-1.966;2023-12-20T14:47:10;16.80;55.30
61591;DHT22;71994;52.410;-1.966;2023-12-20T14:50:18;16.70;55.30
61591;DHT22;71994;52.410;-1.966;2023-12-20T14:53:27;16.70;55.10
61591;DHT22;71994;52.410;-1.966;2023-12-20T14:56:33;16.80;55.20
61591;DHT22;71994;52.410;-1.966;2023-12-20T14:59:38;16.80;55.30
61591;DHT22;71994;52.410;-1.966;2023-12-20T15:02:46;16.90;55.20
61591;DHT22;71994;52.410;-1.966;2023-12-20T15:05:50;17.00;55.00
61591;DHT22;71994;52.410;-1.966;2023-12-20T15:09:02;17.10;54.70
61591;DHT22;71994;52.410;-1.966;2023-12-20T15:12:08;17.20;54.50
61591;DHT22;71994;52.410;-1.966;2023-12-20T15:15:15;17.30;54.30
61591;DHT22;71994;52.410;-1.966;2023-12-20T15:18:22;17.40;54.30
61591;DHT22;71994;52.410;-1.966;2023-12-20T15:21:29;17.40;54.40
61591;DHT22;71994;52.410;-1.966;2023-12-20T15:24:45;17.50;54.50
61591;DHT22;71994;52.410;-1.966;2023-12-20T15:27:54;17.40;54.40
61591;DHT22;71994;52.410;-1.966;2023-12-20T15:31:00;17.40;54.50
61591;DHT22;71994;52.410;-1.966;2023-12-20T15:34:06;17.40;54.50
61591;DHT22;71994;52.410;-1.966;2023-12-20T15:37:12;17.40;54.60
61591;DHT22;71994;52.410;-1.966;2023-12-20T15:40:21;17.30;54.60
61591;DHT22;71994;52.410;-1.966;2023-12-20T15:43:27;17.30;54.60
61591;DHT22;71994;52.410;-1.966;2023-12-20T15:46:34;17.20;54.80
61591;DHT22;71994;52.410;-1.966;2023-12-20T15:49:40;17.20;54.70
61591;DHT22;71994;52.410;-1.966;2023-12-20T15:52:49;17.10;54.80
61591;DHT22;71994;52.410;-1.966;2023-12-20T15:55:58;17.10;54.90
61591;DHT22;71994;52.410;-1.966;2023-12-20T15:59:04;17.10;55.00
61591;DHT22;71994;52.410;-1.966;2023-12-20T16:02:11;17.00;55.10
61591;DHT22;71994;52.410;-1.966;2023-12-20T16:05:18;17.00;55.20
61591;DHT22;71994;52.410;-1.966;2023-12-20T16:08:25;17.00;55.20
61591;DHT22;71994;52.410;-1.966;2023-12-20T16:11:36;16.90;55.30
61591;DHT22;71994;52.410;-1.966;2023-12-20T16:14:44;17.00;55.20
61591;DHT22;71994;52.410;-1.966;2023-12-20T16:17:50;17.00;55.20
61591;DHT22;71994;52.410;-1.966;2023-12-20T16:20:56;16.90;55.20
61591;DHT22;71994;52.410;-1.966;2023-12-20T16:24:04;16.90;55.30
61591;DHT22;71994;52.410;-1.966;2023-12-20T16:27:14;16.80;55.30
61591;DHT22;71994;52.410;-1.966;2023-12-20T16:30:20;16.80;55.40
61591;DHT22;71994;52.410;-1.966;2023-12-20T16:33:26;16.80;55.40
61591;DHT22;71994;52.410;-1.966;2023-12-20T16:36:48;16.70;55.40
61591;DHT22;71994;52.410;-1.966;2023-12-20T16:39:55;16.70;55.40
61591;DHT22;71994;52.410;-1.966;2023-12-20T16:43:02;16.70;55.30
61591;DHT22;71994;52.410;-1.966;2023-12-20T16:46:08;16.70;55.30
61591;DHT22;71994;52.410;-1.966;2023-12-20T16:49:15;16.60;55.40
61591;DHT22;71994;52.410;-1.966;2023-12-20T16:52:22;16.60;55.30
61591;DHT22;71994;52.410;-1.966;2023-12-20T16:55:28;16.60;55.30
61591;DHT22;71994;52.410;-1.966;2023-12-20T16:58:37;16.70;55.40
61591;DHT22;71994;52.410;-1.966;2023-12-20T17:01:44;16.70;55.40
61591;DHT22;71994;52.410;-1.966;2023-12-20T17:04:52;16.80;55.30
61591;DHT22;71994;52.410;-1.966;2023-12-20T17:07:58;17.00;55.20
61591;DHT22;71994;52.410;-1.966;2023-12-20T17:11:04;17.20;54.80
61591;DHT22;71994;52.410;-1.966;2023-12-20T17:14:13;17.30;54.50
61591;DHT22;71994;52.410;-1.966;2023-12-20T17:17:20;17.60;54.10
61591;DHT22;71994;52.410;-1.966;2023-12-20T17:20:26;17.60;53.80
61591;DHT22;71994;52.410;-1.966;2023-12-20T17:23:33;17.70;53.60
61591;DHT22;71994;52.410;-1.966;2023-12-20T17:26:39;17.70;53.70
61591;DHT22;71994;52.410;-1.966;2023-12-20T17:29:48;17.70;53.70
61591;DHT22;71994;52.410;-1.966;2023-12-20T17:32:55;17.70;53.60
61591;DHT22;71994;52.410;-1.966;2023-12-20T17:35:59;17.70;53.80
61591;DHT22;71994;52.410;-1.966;2023-12-20T17:39:05;17.70;53.40
61591;DHT22;71994;52.410;-1.966;2023-12-20T17:42:13;17.60;53.50
61591;DHT22;71994;52.410;-1.966;2023-12-20T17:45:22;17.60;53.40
61591;DHT22;71994;52.410;-1.966;2023-12-20T17:48:28;17.60;53.70
61591;DHT22;71994;52.410;-1.966;2023-12-20T17:51:34;17.60;53.90
61591;DHT22;71994;52.410;-1.966;2023-12-20T17:54:41;17.50;53.80
61591;DHT22;71994;52.410;-1.966;2023-12-20T17:57:47;17.50;53.80
61591;DHT22;71994;52.410;-1.966;2023-12-20T18:00:56;17.50;53.80
61591;DHT22;71994;52.410;-1.966;2023-12-20T18:04:03;17.40;53.80
61591;DHT22;71994;52.410;-1.966;2023-12-20T18:07:09;17.40;54.00
61591;DHT22;71994;52.410;-1.966;2023-12-20T18:10:16;17.30;54.20
61591;DHT22;71994;52.410;-1.966;2023-12-20T18:13:22;17.30;54.40
61591;DHT22;71994;52.410;-1.966;2023-12-20T18:16:31;17.30;54.40
61591;DHT22;71994;52.410;-1.966;2023-12-20T18:19:37;17.30;54.40
61591;DHT22;71994;52.410;-1.966;2023-12-20T18:22:44;17.20;54.50
61591;DHT22;71994;52.410;-1.966;2023-12-20T18:25:50;17.10;54.60
61591;DHT22;71994;52.410;-1.966;2023-12-20T18:28:58;17.10;54.60
61591;DHT22;71994;52.410;-1.966;2023-12-20T18:32:08;17.10;54.70
61591;DHT22;71994;52.410;-1.966;2023-12-20T18:35:15;17.10;54.80
61591;DHT22;71994;52.410;-1.966;2023-12-20T18:38:21;17.00;55.00
61591;DHT22;71994;52.410;-1.966;2023-12-20T18:41:31;17.00;54.90
61591;DHT22;71994;52.410;-1.966;2023-12-20T18:44:38;16.90;55.00
61591;DHT22;71994;52.410;-1.966;2023-12-20T18:47:47;16.90;54.90
61591;DHT22;71994;52.410;-1.966;2023-12-20T18:50:56;16.90;54.80
61591;DHT22;71994;52.410;-1.966;2023-12-20T18:54:05;16.90;54.80
61591;DHT22;71994;52.410;-1.966;2023-12-20T18:57:11;16.90;54.80
61591;DHT22;71994;52.410;-1.966;2023-12-20T19:00:17;16.80;55.00
61591;DHT22;71994;52.410;-1.966;2023-12-20T19:03:24;16.80;54.90
61591;DHT22;71994;52.410;-1.966;2023-12-20T19:06:30;16.80;54.90
61591;DHT22;71994;52.410;-1.966;2023-12-20T19:09:37;16.80;54.80
61591;DHT22;71994;52.410;-1.966;2023-12-20T19:12:41;16.80;55.00
61591;DHT22;71994;52.410;-1.966;2023-12-20T19:15:47;16.70;54.90
61591;DHT22;71994;52.410;-1.966;2023-12-20T19:18:56;16.70;55.00
61591;DHT22;71994;52.410;-1.966;2023-12-20T19:22:02;16.70;55.10
61591;DHT22;71994;52.410;-1.966;2023-12-20T19:25:09;16.70;55.10